Time;durP1;ratioP1;P1;durP2;ratioP2;P2;SDS_P1;SDS_P2;PMS_P1;PMS_P2;Temp;Humidity;BMP_temperature;BMP_pressure;BME280_temperature;BME280_humidity;BME280_pressure;Samples;Min_cycle;Max_cycle;Signal;HPM_P1;HPM_P2
2024/01/29 00:00:27;;;;;;;4.00;3.60;;;;;;;2.45;83.71;100464.81;7300769;39;20240;31
2024/01/29 00:06:02;;;;;;;5.40;3.43;;;;;;;2.45;83.48;100462.16;7290133;39;20761;31
2024/01/29 00:11:24;;;;;;;5.87;4.00;;;;;;;2.38;82.82;100469.59;7217772;40;20885;31
2024/01/29 00:16:56;;;;;;;4.83;3.60;;;;;;;2.17;83.54;100453.03;7264752;39;20830;31
2024/01/29 00:22:31;;;;;;;7.05;3.60;;;;;;;2.16;84.18;100458.41;7288159;39;20872;31
2024/01/29 00:28:07;;;;;;;6.80;4.10;;;;;;;2.16;83.87;100451.28;7236014;40;20902;31
2024/01/29 00:33:42;;;;;;;5.97;3.93;;;;;;;2.25;82.70;100452.59;7234117;40;20792;31
2024/01/29 00:39:17;;;;;;;6.25;4.05;;;;;;;2.33;82.81;100458.34;7285291;40;20768;31
2024/01/29 00:44:37;;;;;;;6.97;4.10;;;;;;;2.39;83.48;100465.16;7291656;39;20856;31
2024/01/29 00:50:14;;;;;;;5.27;3.80;;;;;;;2.41;84.00;100461.47;7310536;39;20663;31
2024/01/29 00:55:34;;;;;;;3.77;3.30;;;;;;;2.51;83.35;100469.78;7293230;40;20791;31
2024/01/29 01:01:09;;;;;;;5.25;3.60;;;;;;;2.44;83.20;100460.44;7249648;39;20934;31
2024/01/29 01:06:45;;;;;;;4.20;3.40;;;;;;;2.37;83.30;100464.37;7287496;39;20784;31
2024/01/29 01:12:20;;;;;;;4.83;3.50;;;;;;;2.27;83.41;100461.38;7307245;39;20803;31
2024/01/29 01:17:56;;;;;;;6.40;3.93;;;;;;;2.34;83.86;100451.22;7308923;39;20771;31
2024/01/29 01:23:29;;;;;;;4.70;3.35;;;;;;;2.35;83.41;100459.12;7282437;39;20960;31
2024/01/29 01:28:49;;;;;;;4.50;3.60;;;;;;;2.28;83.42;100447.13;7231383;40;20296;31
2024/01/29 01:34:22;;;;;;;5.40;3.50;;;;;;;2.14;82.98;100450.53;7202108;40;21084;31
2024/01/29 01:39:57;;;;;;;5.10;3.30;;;;;;;2.10;83.31;100459.62;7211945;40;20329;31
2024/01/29 01:45:14;;;;;;;6.10;3.78;;;;;;;2.23;84.66;100460.69;7252558;39;20272;31
2024/01/29 01:55:53;;;;;;;4.50;3.10;;;;;;;2.31;83.86;100462.91;7348778;39;20619;31
2024/01/29 02:01:25;;;;;;;4.43;3.28;;;;;;;2.36;84.16;100455.53;7135497;39;21417;31
2024/01/29 02:07:00;;;;;;;4.60;3.20;;;;;;;2.37;84.14;100451.09;7254986;40;20246;31
2024/01/29 02:12:36;;;;;;;4.70;3.40;;;;;;;2.33;84.02;100457.50;7216514;40;20766;31
2024/01/29 02:17:56;;;;;;;4.35;3.55;;;;;;;2.23;83.96;100462.47;7247434;40;20823;31
2024/01/29 02:23:28;;;;;;;4.40;3.35;;;;;;;2.22;83.37;100456.28;7270294;39;21355;31
2024/01/29 02:28:48;;;;;;;5.00;3.23;;;;;;;2.22;83.55;100455.44;7305199;39;20400;31
2024/01/29 02:34:23;;;;;;;6.35;3.85;;;;;;;2.18;83.68;100462.72;7307904;39;20310;31
2024/01/29 02:39:56;;;;;;;6.20;3.33;;;;;;;2.18;84.66;100461.88;7314927;39;20875;31
2024/01/29 02:45:31;;;;;;;3.95;3.05;;;;;;;2.18;84.55;100464.53;7274274;39;20760;31
2024/01/29 02:50:49;;;;;;;4.90;3.53;;;;;;;2.06;84.09;100463.34;7229916;40;20337;31
2024/01/29 02:56:23;;;;;;;5.25;3.70;;;;;;;2.01;84.17;100454.78;7333433;39;20459;31
2024/01/29 03:07:41;;;;;;;4.47;3.50;;;;;;;2.10;83.84;100464.06;7351155;39;20245;31
2024/01/29 03:18:19;;;;;;;5.00;4.10;;;;;;;2.05;84.72;100452.81;7382033;39;21835;31
2024/01/29 03:23:54;;;;;;;5.03;3.50;;;;;;;2.03;84.89;100452.91;7338721;39;20344;31
2024/01/29 03:29:16;;;;;;;6.33;3.87;;;;;;;2.05;84.13;100461.66;7337552;39;20447;31
2024/01/29 03:34:50;;;;;;;5.00;3.90;;;;;;;1.99;83.41;100455.78;7317452;39;20665;31
2024/01/29 03:40:26;;;;;;;5.43;3.73;;;;;;;1.94;83.82;100452.53;7263174;40;20911;31
2024/01/29 03:46:01;;;;;;;6.57;3.70;;;;;;;1.79;84.65;100446.25;7270050;40;20772;31
2024/01/29 03:51:37;;;;;;;4.87;3.57;;;;;;;1.72;84.70;100455.44;7260907;40;20776;31
2024/01/29 03:57:12;;;;;;;5.83;3.90;;;;;;;1.66;85.20;100456.66;7306517;39;20777;31
2024/01/29 04:02:49;;;;;;;5.20;3.87;;;;;;;1.66;84.69;100440.72;7287302;39;20287;31
2024/01/29 04:08:23;;;;;;;5.37;4.00;;;;;;;1.79;84.25;100438.25;7277886;40;20790;31
2024/01/29 04:13:58;;;;;;;4.37;3.73;;;;;;;1.79;84.53;100436.47;7248331;40;20779;31
2024/01/29 04:19:33;;;;;;;5.25;4.00;;;;;;;1.84;85.06;100440.69;7261983;39;20794;31
2024/01/29 04:25:06;;;;;;;4.43;4.03;;;;;;;1.76;84.11;100433.09;7286154;39;20883;31
2024/01/29 04:35:28;;;;;;;5.83;4.37;;;;;;;1.81;85.42;100436.38;7293157;39;20261;31
2024/01/29 04:41:04;;;;;;;6.70;3.97;;;;;;;1.78;84.00;100436.53;7303191;39;20600;31
2024/01/29 04:46:25;;;;;;;8.13;4.10;;;;;;;1.74;84.93;100437.66;7285198;39;20771;31
2024/01/29 04:52:00;;;;;;;5.20;3.53;;;;;;;1.75;84.12;100448.22;7281360;40;20849;31
2024/01/29 04:57:35;;;;;;;5.05;3.95;;;;;;;1.71;83.69;100440.47;7255867;40;20818;31
2024/01/29 05:03:09;;;;;;;5.73;3.90;;;;;;;1.66;84.35;100443.38;7299186;39;20822;31
2024/01/29 05:08:45;;;;;;;5.13;3.90;;;;;;;1.66;84.02;100443.38;7279559;39;20876;31
2024/01/29 05:14:20;;;;;;;6.15;4.30;;;;;;;1.57;84.63;100438.53;7238761;40;20776;31
2024/01/29 05:19:44;;;;;;;5.05;4.05;;;;;;;1.65;84.66;100440.78;7276386;39;20834;31
2024/01/29 05:25:17;;;;;;;6.17;4.30;;;;;;;1.64;84.55;100434.59;7337773;39;20454;31
2024/01/29 05:30:51;;;;;;;5.25;3.90;;;;;;;1.60;84.36;100438.38;7342039;39;20724;31
2024/01/29 05:36:26;;;;;;;5.50;4.30;;;;;;;1.56;84.49;100446.56;7324010;39;20695;31
2024/01/29 05:42:01;;;;;;;5.03;3.90;;;;;;;1.61;84.40;100450.72;7237055;40;20892;31
2024/01/29 05:47:37;;;;;;;4.93;4.20;;;;;;;1.61;83.57;100466.66;7240324;40;20988;31
2024/01/29 05:53:12;;;;;;;5.55;4.00;;;;;;;1.51;85.00;100475.16;7216156;40;20753;31
2024/01/29 05:58:46;;;;;;;7.83;4.33;;;;;;;1.55;83.72;100468.75;7308771;39;21550;31
2024/01/29 06:04:20;;;;;;;5.47;3.70;;;;;;;1.54;83.91;100470.53;7318570;39;20450;31
2024/01/29 06:09:55;;;;;;;5.75;4.00;;;;;;;1.51;84.89;100468.06;7319460;39;20789;31
2024/01/29 06:15:31;;;;;;;7.00;4.60;;;;;;;1.58;84.82;100469.44;7328247;39;20381;31
2024/01/29 06:21:08;;;;;;;6.90;4.27;;;;;;;1.64;85.24;100471.81;7365723;39;20636;31
2024/01/29 06:26:28;;;;;;;5.00;3.95;;;;;;;1.56;84.49;100473.12;7325624;39;20690;31
2024/01/29 06:37:08;;;;;;;5.95;4.35;;;;;;;1.53;84.26;100474.16;7384990;39;21241;31
2024/01/29 06:42:43;;;;;;;6.23;4.60;;;;;;;1.57;84.92;100467.75;7328449;39;20383;31
2024/01/29 06:48:18;;;;;;;6.47;4.87;;;;;;;1.49;84.92;100472.59;7300390;39;20268;31
2024/01/29 06:58:58;;;;;;;9.83;4.77;;;;;;;1.51;85.34;100485.78;7336080;39;20775;31
2024/01/29 07:04:18;;;;;;;8.13;5.30;;;;;;;1.50;84.78;100497.34;7343854;39;20262;31
2024/01/29 07:09:38;;;;;;;5.30;4.50;;;;;;;1.51;84.65;100505.25;7334058;39;20264;31
2024/01/29 07:15:15;;;;;;;7.10;5.35;;;;;;;1.55;84.80;100498.84;7301205;39;20974;31
2024/01/29 07:20:50;;;;;;;7.70;5.10;;;;;;;1.55;84.88;100508.59;7309843;39;20393;31
2024/01/29 07:26:10;;;;;;;8.63;6.00;;;;;;;1.50;84.94;100522.13;7295987;39;20780;31
2024/01/29 07:31:46;;;;;;;6.83;5.30;;;;;;;1.46;84.68;100520.56;7286851;39;20880;31
2024/01/29 07:37:06;;;;;;;15.10;9.63;;;;;;;1.56;85.28;100529.78;7267621;39;20772;31
2024/01/29 07:42:24;;;;;;;9.80;7.40;;;;;;;1.69;85.87;100524.72;7270830;39;20245;31
2024/01/29 07:48:04;;;;;;;8.75;6.50;;;;;;;1.73;85.31;100528.94;7286607;39;20239;31
2024/01/29 07:53:21;;;;;;;10.00;5.65;;;;;;;1.67;85.53;100545.16;7281007;39;20248;31
2024/01/29 07:58:57;;;;;;;9.00;5.75;;;;;;;1.66;86.55;100549.66;7299942;39;20426;31
2024/01/29 08:04:35;;;;;;;7.07;5.30;;;;;;;1.76;85.59;100550.03;7264385;39;20241;31
2024/01/29 08:10:11;;;;;;;7.00;5.30;;;;;;;1.80;86.62;100548.94;7254599;39;20245;31
2024/01/29 08:15:46;;;;;;;10.10;5.50;;;;;;;1.87;86.21;100546.84;7239099;40;20298;31
2024/01/29 08:21:22;;;;;;;7.37;5.63;;;;;;;1.94;87.15;100551.75;7138492;40;20775;31
2024/01/29 08:26:57;;;;;;;9.07;7.43;;;;;;;2.07;87.07;100550.16;7201095;40;20761;31
2024/01/29 08:32:32;;;;;;;13.00;9.30;;;;;;;2.23;86.12;100560.88;7045418;40;21182;31
2024/01/29 08:38:09;;;;;;;13.52;10.25;;;;;;;2.25;87.18;100549.22;7252437;39;20835;31
2024/01/29 08:43:28;;;;;;;8.97;6.37;;;;;;;2.35;87.55;100551.38;7283874;39;20785;31
2024/01/29 08:48:46;;;;;;;11.23;8.10;;;;;;;2.45;87.11;100544.63;7331318;39;21198;31
2024/01/29 08:54:22;;;;;;;14.63;9.73;;;;;;;2.52;87.28;100544.22;7324118;39;20908;31
2024/01/29 08:59:40;;;;;;;17.20;11.70;;;;;;;2.68;88.61;100557.53;7359728;39;20972;31
2024/01/29 09:05:15;;;;;;;16.15;10.80;;;;;;;2.77;87.60;100561.50;7298705;40;20260;31
2024/01/29 09:10:51;;;;;;;16.87;11.87;;;;;;;2.90;87.35;100559.88;7314315;39;20232;31
2024/01/29 09:16:26;;;;;;;16.33;10.40;;;;;;;2.99;88.53;100562.03;7302814;39;20775;31
2024/01/29 09:22:02;;;;;;;13.63;9.60;;;;;;;3.09;88.72;100571.25;7266739;40;20784;31
2024/01/29 09:27:34;;;;;;;13.40;9.40;;;;;;;3.19;88.91;100580.44;7208931;40;20258;31
2024/01/29 09:32:56;;;;;;;13.07;9.97;;;;;;;3.27;88.68;100577.34;7251691;39;20863;31
2024/01/29 09:38:29;;;;;;;16.70;10.00;;;;;;;3.37;88.88;100586.53;7317406;39;20798;31
2024/01/29 09:44:05;;;;;;;16.55;10.70;;;;;;;3.46;89.38;100576.22;7253827;39;21375;31
2024/01/29 09:49:40;;;;;;;13.35;10.45;;;;;;;3.55;88.35;100575.66;7284760;39;20253;31
2024/01/29 09:55:15;;;;;;;16.20;11.30;;;;;;;3.64;88.98;100567.13;7257549;40;20399;31
2024/01/29 10:00:50;;;;;;;15.30;10.77;;;;;;;3.69;88.78;100571.34;7275393;39;20246;31
2024/01/29 10:06:25;;;;;;;17.43;11.53;;;;;;;3.77;90.08;100571.78;7256191;39;20333;31
2024/01/29 10:12:00;;;;;;;14.70;11.30;;;;;;;3.89;89.74;100568.38;7260597;40;20243;31
2024/01/29 10:17:37;;;;;;;14.33;11.90;;;;;;;4.03;89.02;100565.75;7233908;40;20242;31
2024/01/29 10:23:15;;;;;;;15.43;11.43;;;;;;;4.11;89.22;100560.81;7268174;40;20256;31
2024/01/29 10:28:36;;;;;;;15.90;12.20;;;;;;;4.26;88.53;100554.53;7329360;39;20243;31
2024/01/29 10:34:09;;;;;;;16.33;12.20;;;;;;;4.39;89.39;100552.81;7324039;39;20576;31
2024/01/29 10:39:44;;;;;;;15.80;12.50;;;;;;;4.53;88.50;100562.66;7342787;39;20306;31
2024/01/29 10:45:21;;;;;;;16.77;11.37;;;;;;;4.68;88.25;100551.03;7300999;39;20386;31
2024/01/29 10:50:56;;;;;;;15.45;12.30;;;;;;;4.86;88.67;100549.88;7259876;40;20467;31
2024/01/29 10:56:18;;;;;;;15.50;11.55;;;;;;;5.00;89.27;100551.69;7208176;40;20380;31
2024/01/29 11:01:55;;;;;;;14.65;11.70;;;;;;;5.15;88.03;100533.78;7242814;40;20236;31
2024/01/29 11:07:31;;;;;;;15.90;11.40;;;;;;;5.30;88.67;100524.78;7214552;40;20254;31
2024/01/29 11:13:07;;;;;;;16.20;11.80;;;;;;;5.37;88.60;100524.25;7268912;39;20312;31
2024/01/29 11:18:47;;;;;;;13.35;11.65;;;;;;;5.55;88.21;100529.34;7256732;40;20231;31
2024/01/29 11:24:23;;;;;;;16.13;12.00;;;;;;;5.72;87.83;100519.22;7258231;39;20311;31
2024/01/29 11:29:59;;;;;;;15.10;12.20;;;;;;;5.95;87.61;100517.72;7241644;40;20339;31
2024/01/29 11:35:34;;;;;;;14.90;12.15;;;;;;;6.17;86.77;100507.25;7209938;40;21332;31
2024/01/29 11:41:10;;;;;;;14.75;12.20;;;;;;;6.37;86.04;100503.16;7211639;40;20287;31
2024/01/29 11:46:31;;;;;;;17.40;11.57;;;;;;;6.51;85.46;100494.16;7215789;40;20376;31
2024/01/29 11:51:51;;;;;;;15.20;11.20;;;;;;;6.71;85.43;100488.25;7230078;40;20298;31
2024/01/29 11:57:27;;;;;;;16.40;12.05;;;;;;;6.83;84.52;100486.47;7245870;40;20399;31
2024/01/29 12:03:01;;;;;;;14.50;11.77;;;;;;;6.93;84.69;100476.81;7291697;39;20335;31
2024/01/29 12:08:38;;;;;;;15.30;11.25;;;;;;;7.08;84.01;100467.63;7289846;40;20267;31
2024/01/29 12:14:13;;;;;;;14.60;11.37;;;;;;;7.20;85.55;100469.41;7235970;40;20293;31
2024/01/29 12:19:51;;;;;;;15.70;11.35;;;;;;;7.41;84.01;100464.28;7247201;40;20256;31
2024/01/29 12:25:21;;;;;;;11.70;10.27;;;;;;;7.52;84.00;100451.75;7207486;40;20385;31
2024/01/29 12:30:57;;;;;;;14.17;10.70;;;;;;;7.74;83.53;100453.66;7187012;40;20243;31
2024/01/29 12:36:32;;;;;;;14.70;9.80;;;;;;;7.91;82.13;100446.97;7205351;40;20242;31
2024/01/29 12:42:07;;;;;;;15.15;10.50;;;;;;;8.13;82.73;100453.25;7262656;39;20238;31
2024/01/29 12:47:43;;;;;;;13.10;10.17;;;;;;;8.22;81.55;100450.81;7288326;39;20406;31
2024/01/29 12:53:19;;;;;;;15.40;10.15;;;;;;;8.40;81.59;100457.44;7293763;39;20241;31
2024/01/29 12:58:39;;;;;;;13.10;9.77;;;;;;;8.56;81.16;100449.84;7255504;40;20260;31
2024/01/29 13:04:16;;;;;;;14.73;10.23;;;;;;;8.60;80.97;100444.13;7228073;40;20239;31
2024/01/29 13:09:35;;;;;;;13.80;9.27;;;;;;;8.69;80.88;100445.19;7216201;40;20245;31
2024/01/29 13:14:54;;;;;;;12.17;9.07;;;;;;;8.74;80.86;100442.16;7208553;40;20253;31
2024/01/29 13:20:28;;;;;;;11.85;8.65;;;;;;;8.81;80.08;100430.78;7236798;40;21367;31
2024/01/29 13:26:03;;;;;;;11.63;8.80;;;;;;;8.97;79.81;100423.16;7202023;40;20404;31
2024/01/29 13:31:23;;;;;;;12.10;9.10;;;;;;;9.13;79.69;100432.66;7245482;40;20269;31
2024/01/29 13:37:00;;;;;;;10.60;8.20;;;;;;;9.22;78.23;100416.59;7226008;40;20341;31
2024/01/29 13:42:20;;;;;;;13.13;8.93;;;;;;;9.31;77.91;100420.34;7250353;40;20259;31
2024/01/29 13:47:41;;;;;;;12.27;8.57;;;;;;;9.41;78.13;100424.84;7263974;40;20262;31
2024/01/29 13:53:15;;;;;;;12.80;7.90;;;;;;;9.40;77.78;100422.28;7286775;39;20336;31
2024/01/29 13:58:32;;;;;;;11.60;9.20;;;;;;;9.40;78.44;100425.81;7297120;39;20249;31
2024/01/29 14:09:11;;;;;;;14.53;8.63;;;;;;;9.30;78.25;100415.97;7340482;39;20248;31
2024/01/29 14:14:43;;;;;;;11.90;8.35;;;;;;;9.30;78.50;100415.97;7306215;39;20267;31
2024/01/29 14:20:16;;;;;;;12.53;8.17;;;;;;;9.31;78.99;100409.59;7276848;40;20449;31
2024/01/29 14:25:51;;;;;;;11.00;8.50;;;;;;;9.34;78.53;100406.66;7274326;40;20388;31
2024/01/29 14:31:22;;;;;;;11.13;7.90;;;;;;;9.35;79.40;100406.50;7223593;40;20547;31
2024/01/29 14:36:50;;;;;;;16.73;11.83;;;;;;;9.35;79.25;100419.09;7268397;40;20260;31
2024/01/29 14:42:27;;;;;;;13.75;10.20;;;;;;;9.33;79.67;100413.03;7275592;40;20252;31
2024/01/29 14:47:44;;;;;;;10.30;7.70;;;;;;;9.32;79.82;100414.00;7275720;40;21285;31
2024/01/29 14:53:15;;;;;;;18.73;12.20;;;;;;;9.29;80.04;100416.94;7131821;39;20229;31
2024/01/29 14:58:51;;;;;;;15.50;10.80;;;;;;;9.33;80.26;100426.47;7270123;39;20246;31
2024/01/29 15:04:11;;;;;;;13.83;9.17;;;;;;;9.35;80.50;100425.34;7274311;39;20595;31
2024/01/29 15:09:41;;;;;;;11.93;9.03;;;;;;;9.28;80.06;100410.72;7245142;40;20248;31
2024/01/29 15:15:17;;;;;;;13.47;9.07;;;;;;;9.30;80.01;100416.81;7250674;40;20844;31
2024/01/29 15:20:52;;;;;;;11.70;9.00;;;;;;;9.23;80.35;100415.63;7279035;40;20268;31
2024/01/29 15:26:25;;;;;;;13.90;8.80;;;;;;;9.19;80.50;100410.63;7316124;39;20470;31
2024/01/29 15:32:00;;;;;;;11.70;9.80;;;;;;;9.15;80.78;100425.31;7279798;40;20365;31
2024/01/29 15:37:35;;;;;;;10.27;8.03;;;;;;;9.15;80.50;100419.94;7242996;40;20255;31
2024/01/29 15:48:14;;;;;;;23.07;13.20;;;;;;;9.06;80.75;100432.31;7262820;39;20251;31
2024/01/29 15:53:32;;;;;;;12.00;8.60;;;;;;;9.00;80.79;100436.34;7311708;39;20263;31
2024/01/29 15:58:50;;;;;;;11.03;7.37;;;;;;;8.76;81.53;100442.88;7317672;39;20254;31
2024/01/29 16:04:23;;;;;;;9.50;7.45;;;;;;;8.46;81.27;100447.06;7337939;39;20559;31
2024/01/29 16:09:44;;;;;;;11.13;8.40;;;;;;;8.28;82.25;100453.00;7298453;39;20443;31
2024/01/29 16:15:17;;;;;;;18.07;8.67;;;;;;;8.22;83.12;100461.53;7293028;39;20262;31
2024/01/29 16:20:53;;;;;;;12.00;7.97;;;;;;;8.24;82.18;100456.91;7265497;40;20241;31
2024/01/29 16:26:28;;;;;;;10.65;7.90;;;;;;;8.07;82.57;100459.06;7290057;39;20248;31
2024/01/29 16:31:52;;;;;;;9.53;8.23;;;;;;;7.92;82.46;100465.66;7326307;39;20392;31
2024/01/29 16:37:24;;;;;;;10.30;7.70;;;;;;;7.74;82.48;100464.37;7314042;39;20279;31
2024/01/29 16:47:47;;;;;;;10.17;8.37;;;;;;;7.43;83.71;100470.38;7257040;40;21257;31
2024/01/29 16:53:21;;;;;;;12.10;8.50;;;;;;;7.26;82.38;100474.31;7283018;39;20252;31
2024/01/29 16:58:56;;;;;;;11.20;8.43;;;;;;;7.09;82.69;100470.22;7312154;39;20423;31
2024/01/29 17:04:14;;;;;;;9.85;7.75;;;;;;;7.01;83.65;100480.66;7320736;39;20236;31
2024/01/29 17:09:49;;;;;;;9.30;7.80;;;;;;;6.84;83.79;100485.53;7302002;39;20378;31
2024/01/29 17:15:10;;;;;;;10.10;7.55;;;;;;;6.80;83.69;100482.22;7286489;39;20244;31
2024/01/29 17:20:31;;;;;;;10.50;7.80;;;;;;;6.76;83.35;100496.78;7348353;39;20251;31
2024/01/29 17:26:03;;;;;;;8.70;7.80;;;;;;;6.55;82.99;100491.13;7347636;39;20323;31
2024/01/29 17:31:37;;;;;;;10.90;7.80;;;;;;;6.46;83.72;100504.31;7327558;39;20456;31
2024/01/29 17:36:58;;;;;;;11.53;8.83;;;;;;;6.37;84.44;100496.94;7318463;39;20381;31
2024/01/29 17:42:33;;;;;;;12.80;9.35;;;;;;;6.31;84.36;100490.22;7318320;39;20391;31
2024/01/29 17:48:06;;;;;;;10.57;8.40;;;;;;;6.10;84.80;100500.59;7306453;39;20283;31
2024/01/29 17:53:43;;;;;;;9.80;8.00;;;;;;;6.05;84.12;100489.38;7297433;39;20241;31
2024/01/29 17:59:17;;;;;;;8.57;6.90;;;;;;;5.98;84.47;100496.09;7287691;39;20372;31
2024/01/29 18:04:38;;;;;;;9.50;7.80;;;;;;;5.98;84.75;100500.56;7237175;40;20245;31
2024/01/29 18:10:13;;;;;;;9.97;7.83;;;;;;;5.99;84.64;100500.47;7240786;40;20245;31
2024/01/29 18:15:47;;;;;;;9.17;7.50;;;;;;;5.91;84.45;100497.47;7294363;39;20267;31
2024/01/29 18:21:20;;;;;;;12.40;8.30;;;;;;;5.80;85.03;100499.97;7320837;39;21247;31
2024/01/29 18:26:41;;;;;;;11.53;7.83;;;;;;;5.78;84.67;100500.09;7308966;39;20336;31
2024/01/29 18:32:15;;;;;;;11.10;8.05;;;;;;;5.75;84.08;100502.09;7295340;39;20251;31
2024/01/29 18:37:50;;;;;;;9.20;7.05;;;;;;;5.66;85.09;100503.59;7249129;39;20406;31
2024/01/29 18:43:10;;;;;;;8.45;7.25;;;;;;;5.61;85.24;100510.22;7267328;39;20252;31
2024/01/29 18:48:47;;;;;;;10.40;7.50;;;;;;;5.53;85.77;100513.38;7300857;39;20378;31
2024/01/29 18:54:07;;;;;;;11.03;8.40;;;;;;;5.49;85.42;100521.72;7283903;39;20240;31
2024/01/29 18:59:25;;;;;;;8.50;7.10;;;;;;;5.48;85.80;100525.37;7258302;40;20263;31
2024/01/29 19:05:02;;;;;;;12.30;8.60;;;;;;;5.46;85.38;100520.12;7247635;40;20230;31
2024/01/29 19:10:22;;;;;;;9.90;6.63;;;;;;;5.42;85.32;100526.62;7242992;39;20231;31
2024/01/29 19:15:58;;;;;;;10.30;7.47;;;;;;;5.27;85.53;100531.16;7255821;40;20248;31
2024/01/29 19:21:34;;;;;;;9.60;7.00;;;;;;;5.23;86.11;100529.66;7253072;40;20253;31
2024/01/29 19:26:51;;;;;;;8.73;7.10;;;;;;;5.29;85.92;100523.06;7284582;39;20370;31
2024/01/29 19:32:27;;;;;;;8.50;7.03;;;;;;;5.26;86.07;100512.56;7344635;39;20244;31
2024/01/29 19:38:04;;;;;;;12.55;6.85;;;;;;;5.20;86.12;100516.50;7197969;40;20246;31
2024/01/29 19:43:24;;;;;;;8.95;6.70;;;;;;;5.22;86.19;100514.56;7176356;40;20392;31
2024/01/29 19:48:42;;;;;;;8.20;7.00;;;;;;;5.23;86.90;100531.47;7249019;40;20246;31
2024/01/29 19:54:17;;;;;;;8.63;7.00;;;;;;;5.20;86.49;100523.66;7252906;40;20283;31
2024/01/29 20:04:39;;;;;;;11.07;6.97;;;;;;;5.22;87.25;100519.91;7276478;40;20704;31
2024/01/29 20:10:16;;;;;;;9.00;6.60;;;;;;;5.24;87.01;100520.69;7302499;39;20256;31
2024/01/29 20:15:51;;;;;;;11.75;6.85;;;;;;;5.28;87.26;100524.00;7342071;39;20329;31
2024/01/29 20:21:13;;;;;;;7.40;6.07;;;;;;;5.30;86.89;100514.94;7238988;40;20391;31
2024/01/29 20:26:46;;;;;;;10.50;8.30;;;;;;;5.06;86.09;100513.84;7230103;40;20257;31
2024/01/29 20:32:07;;;;;;;11.05;7.55;;;;;;;4.92;87.10;100516.56;7233257;40;20272;31
2024/01/29 20:37:42;;;;;;;12.77;8.60;;;;;;;4.87;86.83;100518.69;7260873;39;20399;31
2024/01/29 20:43:18;;;;;;;14.30;8.07;;;;;;;4.88;87.01;100515.03;7306775;39;20252;31
2024/01/29 20:48:38;;;;;;;13.85;7.70;;;;;;;4.83;87.41;100511.81;7276532;39;20460;31
2024/01/29 20:59:19;;;;;;;7.20;5.70;;;;;;;4.91;87.22;100510.34;7323506;39;20348;31
2024/01/29 21:04:41;;;;;;;7.67;5.70;;;;;;;4.97;87.30;100504.63;7333459;39;21454;31
2024/01/29 21:10:00;;;;;;;7.83;5.33;;;;;;;4.94;87.14;100504.84;7314903;39;20270;31
2024/01/29 21:15:37;;;;;;;8.20;5.30;;;;;;;4.95;86.91;100500.34;7297725;39;20323;31
2024/01/29 21:20:54;;;;;;;6.20;5.00;;;;;;;4.97;87.16;100496.59;7289609;40;20396;31
2024/01/29 21:26:29;;;;;;;9.35;4.80;;;;;;;4.78;86.93;100500.59;7238115;40;20350;31
2024/01/29 21:32:05;;;;;;;5.83;4.90;;;;;;;4.63;86.87;100499.72;7266741;39;20438;31
2024/01/29 21:37:25;;;;;;;6.93;5.13;;;;;;;4.61;87.67;100503.47;7280102;39;20241;31
2024/01/29 21:42:45;;;;;;;5.85;5.12;;;;;;;4.62;87.53;100507.81;7113393;39;20287;31
2024/01/29 21:48:22;;;;;;;6.80;4.90;;;;;;;4.68;87.50;100496.78;7283588;40;20320;31
2024/01/29 21:53:43;;;;;;;6.90;4.55;;;;;;;4.73;87.42;100514.22;7265510;39;20264;31
2024/01/29 21:59:00;;;;;;;7.70;4.70;;;;;;;4.76;87.96;100508.69;7338351;39;20516;31
2024/01/29 22:04:36;;;;;;;6.55;4.70;;;;;;;4.71;86.99;100507.25;7292252;39;20344;31
2024/01/29 22:09:55;;;;;;;6.80;4.90;;;;;;;4.65;87.67;100515.66;7300807;39;20676;31
2024/01/29 22:15:29;;;;;;;5.77;4.40;;;;;;;4.66;87.55;100496.84;7360000;39;20235;31
2024/01/29 22:21:04;;;;;;;7.67;5.20;;;;;;;4.73;88.03;100502.69;7323744;39;20469;31
2024/01/29 22:26:23;;;;;;;8.20;4.80;;;;;;;4.68;87.87;100504.78;7285856;39;20321;31
2024/01/29 22:31:55;;;;;;;7.90;4.60;;;;;;;4.64;88.03;100505.94;7330113;39;20218;31
2024/01/29 22:37:33;;;;;;;5.40;3.90;;;;;;;4.64;88.52;100511.28;7328465;39;20263;31
2024/01/29 22:43:08;;;;;;;41.90;25.00;;;;;;;4.54;88.22;100516.31;7225659;40;20220;31
2024/01/29 22:48:44;;;;;;;8.30;5.30;;;;;;;4.54;88.01;100524.34;7239513;40;20238;31
2024/01/29 22:54:21;;;;;;;7.75;5.05;;;;;;;4.49;87.77;100524.63;7207081;40;20241;31
2024/01/29 22:59:42;;;;;;;7.25;4.47;;;;;;;4.45;87.88;100522.25;7199254;40;20372;31
2024/01/29 23:05:03;;;;;;;7.27;4.63;;;;;;;4.45;87.48;100523.09;7216092;40;20260;31
2024/01/29 23:10:35;;;;;;;6.67;4.53;;;;;;;4.37;87.93;100522.72;7276503;39;20263;31
2024/01/29 23:15:55;;;;;;;7.00;4.37;;;;;;;4.24;88.33;100527.09;7319985;39;20771;31
2024/01/29 23:21:15;;;;;;;5.35;3.85;;;;;;;4.19;87.91;100531.84;7320922;39;20257;31
2024/01/29 23:26:51;;;;;;;5.97;3.93;;;;;;;4.18;87.46;100524.78;7273205;39;20445;31
2024/01/29 23:32:10;;;;;;;4.80;3.90;;;;;;;4.20;87.97;100530.03;7289077;39;20476;31
2024/01/29 23:37:44;;;;;;;5.60;3.95;;;;;;;4.09;87.67;100525.34;7319731;39;20838;31
2024/01/29 23:43:22;;;;;;;5.83;4.33;;;;;;;4.09;88.45;100520.00;7247893;40;20328;31
2024/01/29 23:48:57;;;;;;;6.45;4.00;;;;;;;4.09;87.75;100515.53;7241644;40;20261;31
2024/01/29 23:54:19;;;;;;;4.40;4.00;;;;;;;4.05;87.81;100521.16;7225751;40;20242;31
2024/01/29 23:59:52;;;;;;;5.73;3.90;;;;;;;4.05;88.66;100513.16;7268684;39;20230;31
